Prentice, WI

3:57 PM CDT on March 29, 2015 (GMT -0500)
Taylor County | | Change Station
CLOSE
Current Station
Airport
Location: Medford,
Elevation: 1470 ft
Nearby Weather Stations

Elev 1470 ft 45.10 °N, 90.30 °W | Updated 22 minutes ago

Rain
Rain
36 °F
Feels Like 26 °F
N
16
Wind Variable Wind from WNW
Gusts 24 mph

Today
High -- | Low -- °F
--% Chance of Precip.
Yesterday
High -- | Low -- °F
Precip. -- in
6:47 AM 7:25 PM
Waxing Gibbous, 74% visible
Pressure 29.56 in
Visibility 5.0 miles
Clouds Overcast 900 ft
Windchill 26 °F
Dew Point 33 °F
Humidity 91%
Rainfall 0.12 in
Snow Depth Not available.
UV 1 out of 12
Pollen 1.50 out of 12
Air Quality Not available.
Flu Activity Not available.
METAR KMDZ 292035Z AUTO 30014G21KT 5SM RA OVC009 02/01 A2956 RMK AO2 P0001 T00210007

More Conditions Fewer Conditions

Pressure 29.56 in
Visibility 5.0 miles
Clouds Overcast 900 ft
Windchill 26 °F
Dew Point 33 °F
Humidity 91%
Rainfall 0.12 in
Snow Depth Not available.
UV 1 out of 12
Pollen 1.50 out of 12
Air Quality Not available.
Flu Activity Not available.
METAR KMDZ 292035Z AUTO 30014G21KT 5SM RA OVC009 02/01 A2956 RMK AO2 P0001 T00210007

More Conditions Fewer Conditions

10-Day Weather Forecast

Almanac

Astronomy

Mar. 29, 2015 Rise Set
Actual Time
Civil Twilight
Nautical Twilight
Astronomical Twilight
Moon
Length of Visible Light
Length of Day
Tomorrow will be .
, % of the Moon is Illuminated

Today's Extremes

State Highs State Lows

Community

WunderPhotos

Upload Photos

1,809,347 photos uploaded!

WunderBlogs® & News

Nearby

Air Quality

  Air Quality AQ Index Pollutant
Not available.

Snow Depth

Station Depth Elevation

Earthquake Activity

City Distance Mag. Time & Date
Minimum magnitude displayed is 2.5.

Coastal Water Temperatures

Place Temperature

Stations

Nearby Weather Stations

Station Location Temp. Windchill Dew Point Humidity Wind Precip. Elev Updated Type